Sw Cap Ferrat I — 3FZK6 — position and weather

sailwx.info

Track history (hours):
 
Tides and Currents Weather Stations Pressure Air Temp Water Temp Dewpoint Dewpoint Depression Visibility Wind Speed Wind Dir Waves Ship Positions

Sw Cap Ferrat I

Last reported at 2016-Sep-02 19:30 UTC. Time now 2016-Sep-24 20:57 UTC.
Position N 11°08' W 061°23'.
Warning: this ship's position is 22 days out of date.

Length 183 m; draft 10.4 m.

Type: Ship (hazmat cat D). MMSI: 374419000.

Date/timePositionNaut miles runAvg speedWind from/ knotsBaromVisibWave heightAir tempDewpointWater temp
2016-Sep-02 19:30N 11°08' W 061°23'9 2.9
2016-Sep-02 16:14N 10°60' W 061°28'3 1.5
2016-Sep-02 14:30N 10°59' W 061°30'1010.6
2016-Sep-02 13:34N 10°52' W 061°38'1313.2
2016-Sep-02 12:33N 10°43' W 061°47'1413.9
2016-Sep-02 11:33N 10°29' W 061°49'1212.4
2016-Sep-02 10:33N 10°21' W 061°40'1010.0
2016-Sep-02 09:33N 10°20' W 061°30'1 0.0
2016-Aug-31 06:15N 10°19' W 061°29'0 0.1
2016-Aug-31 05:34N 10°19' W 061°29'3 2.9
2016-Aug-31 04:32N 10°19' W 061°32'4 3.7
2016-Aug-31 03:32N 10°19' W 061°35'1211.5
2016-Aug-31 02:32N 10°25' W 061°46'1313.3
2016-Aug-31 01:33N 10°37' W 061°49'1110.7
2016-Aug-31 00:33N 10°48' W 061°51'  
Track history (hours):
 
Tides and Currents Weather Stations Pressure Air Temp Water Temp Dewpoint Dewpoint Depression Visibility Wind Speed Wind Dir Waves Ship Positions

Sw Cap Ferrat I

Last reported at 2016-Sep-02 19:30 UTC. Time now 2016-Sep-24 20:57 UTC.
Position N 11°08' W 061°23'.
Warning: this ship's position is 22 days out of date.

Length 183 m; draft 10.4 m.

Type: Ship (hazmat cat D). MMSI: 374419000.

Date/timePositionNaut miles runAvg speedWind from/ knotsBaromVisibWave heightAir tempDewpointWater temp
2016-Sep-02 19:30N 11°08' W 061°23'9 2.9
2016-Sep-02 16:14N 10°60' W 061°28'3 1.5
2016-Sep-02 14:30N 10°59' W 061°30'1010.6
2016-Sep-02 13:34N 10°52' W 061°38'1313.2
2016-Sep-02 12:33N 10°43' W 061°47'1413.9
2016-Sep-02 11:33N 10°29' W 061°49'1212.4
2016-Sep-02 10:33N 10°21' W 061°40'1010.0
2016-Sep-02 09:33N 10°20' W 061°30'1 0.0
2016-Aug-31 06:15N 10°19' W 061°29'0 0.1
2016-Aug-31 05:34N 10°19' W 061°29'3 2.9
2016-Aug-31 04:32N 10°19' W 061°32'4 3.7
2016-Aug-31 03:32N 10°19' W 061°35'1211.5
2016-Aug-31 02:32N 10°25' W 061°46'1313.3
2016-Aug-31 01:33N 10°37' W 061°49'1110.7
2016-Aug-31 00:33N 10°48' W 061°51'  

Dump ship's entire track history